createdAt,value
2022-09-02T00:00:08.904Z,97854.00
2022-09-02T00:00:18.909Z,97856.00
2022-09-02T00:00:28.912Z,97856.00
2022-09-02T00:00:39.023Z,97854.00
2022-09-02T00:00:49.151Z,97856.00
2022-09-02T00:00:59.148Z,97858.00
2022-09-02T00:01:09.264Z,97856.00
2022-09-02T00:01:19.386Z,97856.00
2022-09-02T00:01:29.502Z,97856.00
2022-09-02T00:01:39.656Z,97856.00
2022-09-02T00:01:49.780Z,97856.00
2022-09-02T00:01:59.924Z,97856.00
2022-09-02T00:02:09.909Z,97856.00
2022-09-02T00:02:20.259Z,97854.00
2022-09-02T00:02:30.336Z,97856.00
2022-09-02T00:02:40.362Z,97858.00
2022-09-02T00:02:50.743Z,97858.00
2022-09-02T00:03:00.799Z,97858.00
2022-09-02T00:03:10.878Z,97858.00
2022-09-02T00:03:21.141Z,97856.00
2022-09-02T00:03:31.142Z,97858.00
2022-09-02T00:03:41.072Z,97854.00
2022-09-02T00:03:51.185Z,97858.00
2022-09-02T00:04:01.320Z,97858.00
2022-09-02T00:04:11.321Z,97858.00
2022-09-02T00:04:21.438Z,97856.00
2022-09-02T00:04:31.684Z,97856.00
2022-09-02T00:04:41.801Z,97856.00
2022-09-02T00:04:51.916Z,97856.00
2022-09-02T00:05:02.039Z,97856.00
2022-09-02T00:05:12.045Z,97856.00
2022-09-02T00:05:22.041Z,97856.00
2022-09-02T00:05:32.420Z,97856.00
2022-09-02T00:05:42.537Z,97854.00
2022-09-02T00:05:52.536Z,97854.00
2022-09-02T00:06:02.803Z,97856.00
2022-09-02T00:06:12.789Z,97854.00
2022-09-02T00:06:22.906Z,97856.00
2022-09-02T00:06:33.159Z,97856.00
2022-09-02T00:06:43.156Z,97854.00
2022-09-02T00:06:53.158Z,97856.00
2022-09-02T00:07:03.537Z,97854.00
2022-09-02T00:07:13.658Z,97856.00
2022-09-02T00:07:23.774Z,97856.00
2022-09-02T00:07:33.896Z,97854.00
2022-09-02T00:07:43.996Z,97856.00
2022-09-02T00:07:54.116Z,97854.00
2022-09-02T00:08:04.237Z,97854.00
2022-09-02T00:08:14.357Z,97854.00
2022-09-02T00:08:24.355Z,97854.00
2022-09-02T00:08:34.603Z,97852.00
2022-09-02T00:08:44.607Z,97854.00
2022-09-02T00:08:54.726Z,97852.00
2022-09-02T00:09:04.974Z,97852.00
2022-09-02T00:09:15.092Z,97850.00
2022-09-02T00:09:25.100Z,97852.00
2022-09-02T00:09:35.346Z,97852.00
2022-09-02T00:09:45.460Z,97852.00
2022-09-02T00:09:55.577Z,97852.00
2022-09-02T00:10:05.699Z,97852.00
2022-09-02T00:10:15.817Z,97852.00
2022-09-02T00:10:25.937Z,97852.00
2022-09-02T00:10:36.074Z,97852.00
2022-09-02T00:10:46.200Z,97850.00
2022-09-02T00:10:56.318Z,97852.00
2022-09-02T00:11:06.444Z,97850.00
2022-09-02T00:11:16.560Z,97852.00
2022-09-02T00:11:26.675Z,97850.00
2022-09-02T00:11:36.800Z,97852.00
2022-09-02T00:11:46.924Z,97850.00
2022-09-02T00:11:56.918Z,97850.00
2022-09-02T00:12:07.170Z,97846.00
2022-09-02T00:12:17.288Z,97846.00
2022-09-02T00:12:27.405Z,97850.00
2022-09-02T00:12:37.540Z,97850.00
2022-09-02T00:12:47.544Z,97850.00
2022-09-02T00:12:57.537Z,97848.00
2022-09-02T00:13:07.911Z,97850.00
2022-09-02T00:13:18.029Z,97850.00
2022-09-02T00:13:28.031Z,97846.00
2022-09-02T00:13:38.277Z,97846.00
2022-09-02T00:13:48.280Z,97848.00
2022-09-02T00:13:58.405Z,97848.00
2022-09-02T00:14:08.662Z,97846.00
2022-09-02T00:14:18.697Z,97844.00
2022-09-02T00:14:28.698Z,97846.00
2022-09-02T00:14:39.075Z,97846.00
2022-09-02T00:14:49.076Z,97846.00
2022-09-02T00:14:59.192Z,97844.00
2022-09-02T00:15:09.440Z,97844.00
2022-09-02T00:15:19.572Z,97846.00
2022-09-02T00:15:29.675Z,97844.00
2022-09-02T00:15:39.926Z,97846.00
2022-09-02T00:15:50.043Z,97844.00
2022-09-02T00:16:00.171Z,97844.00
2022-09-02T00:16:10.335Z,97844.00
2022-09-02T00:16:20.503Z,97844.00
2022-09-02T00:16:30.558Z,97844.00
2022-09-02T00:16:40.495Z,97842.00
2022-09-02T00:16:50.532Z,97844.00
2022-09-02T00:17:00.707Z,97844.00
2022-09-02T00:17:10.591Z,97844.00
2022-09-02T00:17:20.713Z,97844.00
2022-09-02T00:17:30.718Z,97846.00
2022-09-02T00:17:41.982Z,97844.00
2022-09-02T00:17:50.859Z,97844.00
2022-09-02T00:18:00.859Z,97844.00
2022-09-02T00:18:10.985Z,97846.00
2022-09-02T00:18:21.054Z,97844.00
2022-09-02T00:18:31.226Z,97844.00
2022-09-02T00:18:44.870Z,97842.00
2022-09-02T00:18:51.358Z,97844.00
2022-09-02T00:19:01.605Z,97844.00
2022-09-02T00:19:11.723Z,97846.00
2022-09-02T00:19:21.843Z,97840.00
2022-09-02T00:19:31.966Z,97844.00
2022-09-02T00:19:42.077Z,97844.00
2022-09-02T00:19:56.017Z,97844.00
2022-09-02T00:20:02.199Z,97844.00
2022-09-02T00:20:12.319Z,97846.00
2022-09-02T00:20:22.435Z,97844.00
2022-09-02T00:20:32.437Z,97844.00
2022-09-02T00:20:42.435Z,97846.00
2022-09-02T00:20:52.548Z,97846.00
2022-09-02T00:21:02.664Z,97842.00
2022-09-02T00:21:12.787Z,97846.00
2022-09-02T00:21:22.901Z,97846.00
2022-09-02T00:21:33.030Z,97846.00
2022-09-02T00:21:43.139Z,97844.00
2022-09-02T00:21:53.137Z,97846.00
2022-09-02T00:22:03.275Z,97844.00
2022-09-02T00:22:13.403Z,97844.00
2022-09-02T00:22:23.518Z,97846.00
2022-09-02T00:22:33.640Z,97846.00
2022-09-02T00:22:43.760Z,97844.00
2022-09-02T00:22:53.883Z,97844.00
2022-09-02T00:23:03.990Z,97846.00
2022-09-02T00:23:14.109Z,97846.00
2022-09-02T00:23:24.235Z,97844.00
2022-09-02T00:23:34.317Z,97848.00
2022-09-02T00:23:44.430Z,97846.00
2022-09-02T00:23:54.551Z,97844.00
2022-09-02T00:24:04.562Z,97844.00
2022-09-02T00:24:14.678Z,97846.00
2022-09-02T00:24:24.792Z,97846.00
2022-09-02T00:24:34.922Z,97844.00
2022-09-02T00:24:45.022Z,97846.00
2022-09-02T00:24:55.136Z,97846.00
2022-09-02T00:25:05.256Z,97844.00
2022-09-02T00:25:15.252Z,97844.00
2022-09-02T00:25:25.372Z,97844.00
2022-09-02T00:25:35.495Z,97844.00
2022-09-02T00:25:45.618Z,97844.00
2022-09-02T00:25:55.726Z,97844.00
2022-09-02T00:26:05.850Z,97844.00
2022-09-02T00:26:15.855Z,97844.00
2022-09-02T00:26:25.971Z,97844.00
2022-09-02T00:26:36.090Z,97842.00
2022-09-02T00:26:46.220Z,97844.00
2022-09-02T00:26:56.904Z,97844.00
2022-09-02T00:27:06.243Z,97842.00
2022-09-02T00:27:16.361Z,97844.00
2022-09-02T00:27:26.478Z,97844.00
2022-09-02T00:27:36.593Z,97842.00
2022-09-02T00:27:46.595Z,97842.00
2022-09-02T00:27:56.720Z,97842.00
2022-09-02T00:28:06.837Z,97842.00
2022-09-02T00:28:16.881Z,97844.00
2022-09-02T00:28:26.988Z,97844.00
2022-09-02T00:28:36.988Z,97842.00
2022-09-02T00:28:51.183Z,97842.00
2022-09-02T00:28:57.203Z,97840.00
2022-09-02T00:29:07.321Z,97840.00
2022-09-02T00:29:17.316Z,97838.00
2022-09-02T00:29:27.435Z,97844.00
2022-09-02T00:29:37.547Z,97844.00
2022-09-02T00:29:47.668Z,97842.00
2022-09-02T00:29:57.784Z,97842.00
2022-09-02T00:30:07.913Z,97836.00
2022-09-02T00:30:17.927Z,97842.00
2022-09-02T00:30:27.926Z,97842.00
2022-09-02T00:30:37.930Z,97842.00
2022-09-02T00:30:48.043Z,97842.00
2022-09-02T00:30:58.159Z,97842.00
2022-09-02T00:31:08.275Z,97842.00
2022-09-02T00:31:18.451Z,97842.00
2022-09-02T00:31:28.493Z,97842.00
2022-09-02T00:31:38.554Z,97842.00
2022-09-02T00:31:48.577Z,97842.00
2022-09-02T00:31:58.702Z,97844.00
2022-09-02T00:32:08.649Z,97842.00
2022-09-02T00:32:18.625Z,97844.00
2022-09-02T00:32:28.634Z,97844.00
2022-09-02T00:32:38.632Z,97844.00
2022-09-02T00:32:48.757Z,97844.00
2022-09-02T00:32:59.000Z,97844.00
2022-09-02T00:33:09.115Z,97842.00
2022-09-02T00:33:19.184Z,97842.00
2022-09-02T00:33:29.472Z,97844.00
2022-09-02T00:33:39.583Z,97846.00
2022-09-02T00:33:49.699Z,97844.00
2022-09-02T00:33:59.839Z,97846.00
2022-09-02T00:34:09.961Z,97838.00
2022-09-02T00:34:19.959Z,97846.00
2022-09-02T00:34:30.208Z,97844.00
2022-09-02T00:34:40.232Z,97840.00
2022-09-02T00:34:50.225Z,97848.00
2022-09-02T00:35:00.604Z,97842.00
2022-09-02T00:35:10.731Z,97846.00
2022-09-02T00:35:20.846Z,97842.00
2022-09-02T00:35:30.976Z,97838.00
2022-09-02T00:35:40.976Z,97840.00
2022-09-02T00:35:51.113Z,97838.00
2022-09-02T00:36:01.372Z,97842.00
2022-09-02T00:36:11.364Z,97840.00
2022-09-02T00:36:21.486Z,97840.00
2022-09-02T00:36:31.735Z,97842.00
2022-09-02T00:36:41.734Z,97842.00
2022-09-02T00:36:51.855Z,97842.00
2022-09-02T00:37:02.110Z,97842.00
2022-09-02T00:37:12.108Z,97842.00
2022-09-02T00:37:22.224Z,97842.00
2022-09-02T00:37:32.476Z,97842.00
2022-09-02T00:37:42.593Z,97842.00
2022-09-02T00:37:52.709Z,97840.00
2022-09-02T00:38:02.836Z,97842.00
2022-09-02T00:38:12.836Z,97840.00
2022-09-02T00:38:22.953Z,97842.00
2022-09-02T00:38:33.209Z,97842.00
2022-09-02T00:38:43.243Z,97840.00
2022-09-02T00:38:53.234Z,97840.00
2022-09-02T00:39:03.611Z,97842.00
2022-09-02T00:39:13.733Z,97838.00
2022-09-02T00:39:23.722Z,97838.00
2022-09-02T00:39:33.982Z,97840.00
2022-09-02T00:39:43.982Z,97838.00
2022-09-02T00:39:54.096Z,97838.00
2022-09-02T00:40:04.468Z,97842.00
2022-09-02T00:40:14.522Z,97838.00
2022-09-02T00:40:24.603Z,97838.00
2022-09-02T00:40:34.875Z,97838.00
2022-09-02T00:40:44.861Z,97840.00
2022-09-02T00:40:54.864Z,97840.00
2022-09-02T00:41:05.240Z,97840.00
2022-09-02T00:41:15.358Z,97840.00
2022-09-02T00:41:25.475Z,97840.00
2022-09-02T00:41:35.597Z,97838.00
2022-09-02T00:41:45.711Z,97838.00
2022-09-02T00:41:55.830Z,97840.00
2022-09-02T00:42:05.963Z,97838.00
2022-09-02T00:42:16.082Z,97836.00
2022-09-02T00:42:26.198Z,97840.00
2022-09-02T00:42:36.328Z,97840.00
2022-09-02T00:42:46.437Z,97834.00
2022-09-02T00:42:56.555Z,97836.00
2022-09-02T00:43:06.684Z,97836.00
2022-09-02T00:43:16.802Z,97836.00
2022-09-02T00:43:26.927Z,97836.00
2022-09-02T00:43:37.055Z,97836.00
2022-09-02T00:43:47.159Z,97836.00
2022-09-02T00:43:57.308Z,97836.00
2022-09-02T00:44:07.429Z,97838.00
2022-09-02T00:44:17.552Z,97834.00
2022-09-02T00:44:27.673Z,97836.00
2022-09-02T00:44:37.794Z,97836.00
2022-09-02T00:44:47.792Z,97836.00
2022-09-02T00:44:57.914Z,97838.00
2022-09-02T00:45:08.163Z,97838.00
2022-09-02T00:45:18.167Z,97838.00
2022-09-02T00:45:28.299Z,97840.00
2022-09-02T00:45:38.642Z,97840.00
2022-09-02T00:45:48.692Z,97838.00
2022-09-02T00:45:58.766Z,97836.00
2022-09-02T00:46:08.807Z,97838.00
2022-09-02T00:46:18.807Z,97836.00
2022-09-02T00:46:30.473Z,97838.00
2022-09-02T00:46:39.027Z,97838.00
2022-09-02T00:46:49.028Z,97836.00
2022-09-02T00:46:59.034Z,97836.00
2022-09-02T00:47:09.154Z,97836.00
2022-09-02T00:47:19.275Z,97834.00
2022-09-02T00:47:29.272Z,97836.00
2022-09-02T00:47:39.274Z,97840.00
2022-09-02T00:47:49.271Z,97834.00
2022-09-02T00:47:59.402Z,97834.00
2022-09-02T00:48:09.399Z,97834.00
2022-09-02T00:48:19.519Z,97834.00
2022-09-02T00:48:29.781Z,97832.00
2022-09-02T00:48:39.900Z,97834.00
2022-09-02T00:48:50.015Z,97834.00
2022-09-02T00:49:00.141Z,97832.00
2022-09-02T00:49:10.263Z,97834.00
2022-09-02T00:49:20.278Z,97836.00
2022-09-02T00:49:30.278Z,97832.00
2022-09-02T00:49:40.276Z,97834.00
2022-09-02T00:49:50.395Z,97834.00
2022-09-02T00:50:00.399Z,97832.00
2022-09-02T00:50:10.402Z,97836.00
2022-09-02T00:50:20.401Z,97836.00
2022-09-02T00:50:30.521Z,97836.00
2022-09-02T00:50:40.645Z,97838.00
2022-09-02T00:50:50.766Z,97838.00
2022-09-02T00:51:00.765Z,97838.00
2022-09-02T00:51:10.996Z,97836.00
2022-09-02T00:51:21.113Z,97836.00
2022-09-02T00:51:31.120Z,97834.00
2022-09-02T00:51:41.387Z,97834.00
2022-09-02T00:51:51.515Z,97840.00
2022-09-02T00:52:01.596Z,97836.00
2022-09-02T00:52:11.869Z,97836.00
2022-09-02T00:52:21.871Z,97836.00
2022-09-02T00:52:31.862Z,97836.00
2022-09-02T00:52:42.241Z,97838.00
2022-09-02T00:52:52.240Z,97838.00
2022-09-02T00:53:02.355Z,97836.00
2022-09-02T00:53:12.603Z,97836.00
2022-09-02T00:53:22.723Z,97838.00
2022-09-02T00:53:32.840Z,97836.00
2022-09-02T00:53:42.961Z,97836.00
2022-09-02T00:53:53.080Z,97836.00
2022-09-02T00:54:03.078Z,97838.00
2022-09-02T00:54:13.330Z,97836.00
2022-09-02T00:54:23.340Z,97838.00
2022-09-02T00:54:33.339Z,97838.00
2022-09-02T00:54:43.380Z,97836.00
2022-09-02T00:54:53.380Z,97836.00
2022-09-02T00:55:03.378Z,97836.00
2022-09-02T00:55:13.494Z,97836.00
2022-09-02T00:55:23.496Z,97836.00
2022-09-02T00:55:33.617Z,97838.00
2022-09-02T00:55:43.734Z,97838.00
2022-09-02T00:55:53.856Z,97834.00
2022-09-02T00:56:03.972Z,97838.00
2022-09-02T00:56:14.094Z,97834.00
2022-09-02T00:56:24.215Z,97834.00
2022-09-02T00:56:34.333Z,97836.00
2022-09-02T00:56:44.449Z,97832.00
2022-09-02T00:56:55.808Z,97834.00
2022-09-02T00:57:04.474Z,97834.00
2022-09-02T00:57:14.600Z,97834.00
2022-09-02T00:57:24.848Z,97836.00
2022-09-02T00:57:34.965Z,97832.00
2022-09-02T00:57:45.082Z,97834.00
2022-09-02T00:57:55.214Z,97836.00
2022-09-02T00:58:05.333Z,97834.00
2022-09-02T00:58:15.402Z,97834.00
2022-09-02T00:58:25.521Z,97834.00
2022-09-02T00:58:35.637Z,97832.00
2022-09-02T00:58:45.637Z,97831.00
2022-09-02T00:58:55.764Z,97834.00
2022-09-02T00:59:05.756Z,97834.00
2022-09-02T00:59:15.874Z,97834.00
2022-09-02T00:59:26.002Z,97834.00
2022-09-02T00:59:36.117Z,97834.00
2022-09-02T00:59:46.120Z,97834.00
2022-09-02T00:59:56.374Z,97834.00
2022-09-02T01:00:06.484Z,97836.00
2022-09-02T01:00:16.606Z,97836.00
2022-09-02T01:00:26.736Z,97834.00
2022-09-02T01:00:36.932Z,97836.00
2022-09-02T01:00:47.061Z,97838.00
2022-09-02T01:00:57.088Z,97838.00
2022-09-02T01:01:07.209Z,97836.00
2022-09-02T01:01:17.347Z,97838.00
2022-09-02T01:01:27.381Z,97834.00
2022-09-02T01:01:37.358Z,97836.00
2022-09-02T01:01:47.438Z,97838.00
2022-09-02T01:01:57.653Z,97836.00
2022-09-02T01:02:07.890Z,97836.00
2022-09-02T01:02:17.822Z,97838.00
2022-09-02T01:02:28.062Z,97838.00
2022-09-02T01:02:38.073Z,97838.00
2022-09-02T01:02:48.191Z,97838.00
2022-09-02T01:02:58.445Z,97838.00
2022-09-02T01:03:08.448Z,97836.00
2022-09-02T01:03:18.495Z,97836.00
2022-09-02T01:03:28.481Z,97838.00
2022-09-02T01:03:38.600Z,97840.00
2022-09-02T01:03:48.715Z,97838.00
2022-09-02T01:03:58.827Z,97838.00
2022-09-02T01:04:08.947Z,97840.00
2022-09-02T01:04:19.063Z,97840.00
2022-09-02T01:04:29.067Z,97840.00
2022-09-02T01:04:39.064Z,97836.00
2022-09-02T01:04:49.059Z,97838.00
2022-09-02T01:04:59.175Z,97838.00
2022-09-02T01:05:09.298Z,97836.00
2022-09-02T01:05:19.377Z,97838.00
2022-09-02T01:05:29.368Z,97836.00
2022-09-02T01:05:43.771Z,97838.00
2022-09-02T01:05:49.725Z,97840.00
2022-09-02T01:05:59.719Z,97838.00
2022-09-02T01:06:09.838Z,97836.00
2022-09-02T01:06:19.988Z,97840.00
2022-09-02T01:06:29.956Z,97838.00
2022-09-02T01:06:40.331Z,97838.00
2022-09-02T01:06:50.453Z,97836.00
2022-09-02T01:07:00.568Z,97840.00
2022-09-02T01:07:10.688Z,97838.00
2022-09-02T01:07:20.802Z,97838.00
2022-09-02T01:07:31.964Z,97838.00
2022-09-02T01:07:41.019Z,97836.00
2022-09-02T01:07:51.391Z,97836.00
2022-09-02T01:08:01.516Z,97834.00
2022-09-02T01:08:11.628Z,97836.00
2022-09-02T01:08:21.748Z,97836.00
2022-09-02T01:08:31.746Z,97838.00
2022-09-02T01:08:41.864Z,97838.00
2022-09-02T01:08:51.920Z,97840.00
2022-09-02T01:09:02.036Z,97838.00
2022-09-02T01:09:12.280Z,97838.00
2022-09-02T01:09:22.396Z,97838.00
2022-09-02T01:09:32.398Z,97838.00
2022-09-02T01:09:42.646Z,97836.00
2022-09-02T01:09:52.764Z,97838.00
2022-09-02T01:10:02.863Z,97838.00
2022-09-02T01:10:12.981Z,97836.00
2022-09-02T01:10:23.107Z,97836.00
2022-09-02T01:10:33.218Z,97838.00
2022-09-02T01:10:43.341Z,97840.00
2022-09-02T01:10:53.456Z,97838.00
2022-09-02T01:11:03.615Z,97838.00
2022-09-02T01:11:13.647Z,97838.00
2022-09-02T01:11:23.753Z,97836.00
2022-09-02T01:11:33.871Z,97838.00
2022-09-02T01:11:43.986Z,97836.00
2022-09-02T01:11:53.987Z,97836.00
2022-09-02T01:12:04.112Z,97836.00
2022-09-02T01:12:14.116Z,97834.00
2022-09-02T01:12:24.232Z,97836.00
2022-09-02T01:12:34.356Z,97836.00
2022-09-02T01:12:44.477Z,97838.00
2022-09-02T01:12:54.589Z,97832.00
2022-09-02T01:13:04.710Z,97836.00
2022-09-02T01:13:14.715Z,97834.00
2022-09-02T01:13:24.727Z,97838.00
2022-09-02T01:13:34.713Z,97834.00
2022-09-02T01:13:44.959Z,97834.00
2022-09-02T01:13:55.074Z,97836.00
2022-09-02T01:14:05.190Z,97838.00
2022-09-02T01:14:15.342Z,97834.00
2022-09-02T01:14:28.602Z,97836.00
2022-09-02T01:14:35.559Z,97836.00
2022-09-02T01:14:45.673Z,97834.00
2022-09-02T01:14:55.674Z,97836.00
2022-09-02T01:15:05.676Z,97834.00
2022-09-02T01:15:15.675Z,97836.00
2022-09-02T01:15:25.791Z,97834.00
2022-09-02T01:15:36.047Z,97836.00
2022-09-02T01:15:46.163Z,97834.00
2022-09-02T01:15:56.211Z,97832.00
2022-09-02T01:16:06.494Z,97834.00
2022-09-02T01:16:16.600Z,97834.00
2022-09-02T01:16:26.638Z,97836.00
2022-09-02T01:16:36.934Z,97836.00
2022-09-02T01:16:47.098Z,97834.00
2022-09-02T01:16:57.020Z,97834.00
2022-09-02T01:17:07.140Z,97834.00
2022-09-02T01:17:17.396Z,97834.00
2022-09-02T01:17:27.520Z,97832.00
2022-09-02T01:17:37.641Z,97836.00
2022-09-02T01:17:47.757Z,97836.00
2022-09-02T01:17:57.879Z,97832.00
2022-09-02T01:18:07.971Z,97832.00
2022-09-02T01:18:18.217Z,97834.00
2022-09-02T01:18:28.334Z,97838.00
2022-09-02T01:18:38.334Z,97836.00
2022-09-02T01:18:48.589Z,97832.00
2022-09-02T01:18:58.703Z,97832.00
2022-09-02T01:19:08.816Z,97834.00
2022-09-02T01:19:18.884Z,97834.00
2022-09-02T01:19:28.998Z,97834.00
2022-09-02T01:19:39.245Z,97836.00
2022-09-02T01:19:49.364Z,97834.00
2022-09-02T01:19:59.361Z,97834.00
2022-09-02T01:20:09.614Z,97834.00
2022-09-02T01:20:19.728Z,97834.00
2022-09-02T01:20:29.759Z,97834.00
2022-09-02T01:20:40.133Z,97834.00
2022-09-02T01:20:50.254Z,97832.00
2022-09-02T01:21:00.248Z,97834.00
2022-09-02T01:21:10.502Z,97834.00
2022-09-02T01:21:20.499Z,97834.00
2022-09-02T01:21:30.615Z,97834.00
2022-09-02T01:21:40.865Z,97834.00
2022-09-02T01:21:50.976Z,97832.00
2022-09-02T01:22:01.091Z,97834.00
2022-09-02T01:22:11.224Z,97834.00
2022-09-02T01:22:21.217Z,97834.00
2022-09-02T01:22:31.344Z,97834.00
2022-09-02T01:22:41.596Z,97832.00
2022-09-02T01:22:51.711Z,97834.00
2022-09-02T01:23:01.722Z,97834.00
2022-09-02T01:23:11.839Z,97832.00
2022-09-02T01:23:22.092Z,97832.00
2022-09-02T01:23:34.925Z,97834.00
2022-09-02T01:23:42.101Z,97832.00
2022-09-02T01:23:52.226Z,97831.00
2022-09-02T01:24:02.226Z,97836.00
2022-09-02T01:24:12.348Z,97834.00
2022-09-02T01:24:22.343Z,97834.00
2022-09-02T01:24:32.458Z,97834.00
2022-09-02T01:24:42.577Z,97832.00
2022-09-02T01:24:52.694Z,97832.00
2022-09-02T01:25:02.828Z,97836.00
2022-09-02T01:25:12.825Z,97834.00
2022-09-02T01:25:22.940Z,97832.00
2022-09-02T01:25:33.073Z,97832.00
2022-09-02T01:25:43.069Z,97834.00
2022-09-02T01:25:53.188Z,97834.00
2022-09-02T01:26:03.190Z,97834.00
2022-09-02T01:26:13.451Z,97834.00
2022-09-02T01:26:23.468Z,97834.00
2022-09-02T01:26:33.469Z,97832.00
2022-09-02T01:26:43.464Z,97834.00
2022-09-02T01:26:53.591Z,97834.00
2022-09-02T01:27:03.588Z,97832.00
2022-09-02T01:27:13.586Z,97832.00
2022-09-02T01:27:23.665Z,97832.00
2022-09-02T01:27:33.667Z,97831.00
2022-09-02T01:27:43.665Z,97832.00
2022-09-02T01:27:53.918Z,97832.00
2022-09-02T01:28:04.034Z,97832.00
2022-09-02T01:28:14.159Z,97834.00
2022-09-02T01:28:24.273Z,97832.00
2022-09-02T01:28:34.399Z,97832.00
2022-09-02T01:28:44.394Z,97832.00
2022-09-02T01:28:54.652Z,97832.00
2022-09-02T01:29:04.641Z,97832.00
2022-09-02T01:29:14.764Z,97832.00
2022-09-02T01:29:25.014Z,97832.00
2022-09-02T01:29:35.010Z,97832.00
2022-09-02T01:29:45.054Z,97832.00
2022-09-02T01:29:55.428Z,97832.00
2022-09-02T01:30:05.543Z,97832.00
2022-09-02T01:30:15.662Z,97832.00
2022-09-02T01:30:25.785Z,97832.00
2022-09-02T01:30:35.789Z,97831.00
2022-09-02T01:30:45.904Z,97831.00
2022-09-02T01:30:56.152Z,97831.00
2022-09-02T01:31:06.190Z,97831.00
2022-09-02T01:31:16.234Z,97831.00
2022-09-02T01:31:26.306Z,97831.00
2022-09-02T01:31:36.362Z,97829.00
2022-09-02T01:31:46.591Z,97831.00
2022-09-02T01:31:56.559Z,97829.00
2022-09-02T01:32:06.450Z,97831.00
2022-09-02T01:32:16.567Z,97827.00
2022-09-02T01:32:26.686Z,97831.00
2022-09-02T01:32:36.826Z,97831.00
2022-09-02T01:32:46.825Z,97829.00
2022-09-02T01:32:56.944Z,97827.00
2022-09-02T01:33:07.193Z,97829.00
2022-09-02T01:33:17.326Z,97829.00
2022-09-02T01:33:27.305Z,97827.00
2022-09-02T01:33:37.555Z,97827.00
2022-09-02T01:33:47.676Z,97831.00
2022-09-02T01:33:57.798Z,97829.00
2022-09-02T01:34:07.943Z,97831.00
2022-09-02T01:34:18.056Z,97831.00
2022-09-02T01:34:28.173Z,97829.00
2022-09-02T01:34:38.296Z,97827.00
2022-09-02T01:34:48.417Z,97829.00
2022-09-02T01:34:58.535Z,97829.00
2022-09-02T01:35:08.666Z,97831.00
2022-09-02T01:35:18.661Z,97829.00
2022-09-02T01:35:28.785Z,97827.00
2022-09-02T01:35:39.046Z,97827.00
2022-09-02T01:35:49.161Z,97825.00
2022-09-02T01:35:59.282Z,97827.00
2022-09-02T01:36:09.406Z,97827.00
2022-09-02T01:36:19.402Z,97827.00
2022-09-02T01:36:29.520Z,97831.00
2022-09-02T01:36:39.547Z,97829.00
2022-09-02T01:36:49.671Z,97827.00
2022-09-02T01:36:59.787Z,97827.00
2022-09-02T01:37:09.906Z,97825.00
2022-09-02T01:37:19.906Z,97825.00
2022-09-02T01:37:30.039Z,97827.00
2022-09-02T01:37:40.024Z,97829.00
2022-09-02T01:37:55.387Z,97825.00
2022-09-02T01:38:00.269Z,97823.00
2022-09-02T01:38:10.383Z,97825.00
2022-09-02T01:38:20.501Z,97823.00
2022-09-02T01:38:30.616Z,97829.00
2022-09-02T01:38:40.729Z,97829.00
2022-09-02T01:38:50.851Z,97827.00
2022-09-02T01:39:00.864Z,97825.00
2022-09-02T01:39:10.854Z,97827.00
2022-09-02T01:39:20.972Z,97827.00
2022-09-02T01:39:31.094Z,97827.00
2022-09-02T01:39:41.089Z,97827.00
2022-09-02T01:39:51.217Z,97825.00
2022-09-02T01:40:01.301Z,97827.00
2022-09-02T01:40:11.304Z,97827.00
2022-09-02T01:40:21.420Z,97823.00
2022-09-02T01:40:31.473Z,97827.00
2022-09-02T01:40:41.657Z,97827.00
2022-09-02T01:40:51.643Z,97827.00
2022-09-02T01:41:01.679Z,97827.00
2022-09-02T01:41:11.806Z,97829.00
2022-09-02T01:41:21.798Z,97827.00
2022-09-02T01:41:31.912Z,97825.00
2022-09-02T01:41:42.038Z,97827.00
2022-09-02T01:41:52.157Z,97827.00
2022-09-02T01:42:02.155Z,97827.00
2022-09-02T01:42:12.275Z,97827.00
2022-09-02T01:42:22.270Z,97825.00
2022-09-02T01:42:32.401Z,97827.00
2022-09-02T01:42:42.657Z,97827.00
2022-09-02T01:42:52.775Z,97827.00
2022-09-02T01:43:02.770Z,97827.00
2022-09-02T01:43:13.018Z,97827.00
2022-09-02T01:43:23.331Z,97827.00
2022-09-02T01:43:33.172Z,97827.00
2022-09-02T01:43:43.422Z,97827.00
2022-09-02T01:43:53.422Z,97827.00
2022-09-02T01:44:03.547Z,97827.00
2022-09-02T01:44:13.804Z,97827.00
2022-09-02T01:44:23.919Z,97829.00
2022-09-02T01:44:34.040Z,97829.00
2022-09-02T01:44:44.220Z,97827.00
2022-09-02T01:44:54.203Z,97827.00
2022-09-02T01:45:04.318Z,97827.00
2022-09-02T01:45:14.568Z,97825.00
2022-09-02T01:45:24.686Z,97827.00
2022-09-02T01:45:34.803Z,97825.00
2022-09-02T01:45:44.926Z,97827.00
2022-09-02T01:45:55.057Z,97827.00
2022-09-02T01:46:05.047Z,97825.00
2022-09-02T01:46:15.328Z,97823.00
2022-09-02T01:46:25.379Z,97825.00
2022-09-02T01:46:35.430Z,97825.00
2022-09-02T01:46:45.478Z,97825.00
2022-09-02T01:46:55.559Z,97823.00
2022-09-02T01:47:05.611Z,97825.00
2022-09-02T01:47:15.663Z,97825.00
2022-09-02T01:47:25.669Z,97825.00
2022-09-02T01:47:35.788Z,97825.00
2022-09-02T01:47:45.791Z,97825.00
2022-09-02T01:47:55.909Z,97825.00
2022-09-02T01:48:06.029Z,97825.00
2022-09-02T01:48:21.257Z,97825.00
2022-09-02T01:48:26.274Z,97823.00
2022-09-02T01:48:36.278Z,97823.00
2022-09-02T01:48:46.276Z,97825.00
2022-09-02T01:48:56.389Z,97827.00
2022-09-02T01:49:06.502Z,97823.00
2022-09-02T01:49:16.624Z,97825.00
2022-09-02T01:49:26.747Z,97823.00
2022-09-02T01:49:36.862Z,97823.00
2022-09-02T01:49:46.981Z,97821.00
2022-09-02T01:49:57.099Z,97823.00
2022-09-02T01:50:07.096Z,97823.00
2022-09-02T01:50:17.219Z,97823.00
2022-09-02T01:50:27.333Z,97821.00
2022-09-02T01:50:37.480Z,97821.00
2022-09-02T01:50:47.459Z,97823.00
2022-09-02T01:50:57.578Z,97827.00
2022-09-02T01:51:07.687Z,97823.00
2022-09-02T01:51:17.813Z,97823.00
2022-09-02T01:51:27.929Z,97829.00
2022-09-02T01:51:38.039Z,97821.00
2022-09-02T01:51:48.159Z,97821.00
2022-09-02T01:51:58.273Z,97821.00
2022-09-02T01:52:08.385Z,97825.00
2022-09-02T01:52:18.512Z,97821.00
2022-09-02T01:52:28.624Z,97821.00
2022-09-02T01:52:38.740Z,97825.00
2022-09-02T01:52:48.858Z,97827.00
2022-09-02T01:52:58.982Z,97825.00
2022-09-02T01:53:09.095Z,97827.00
2022-09-02T01:53:19.348Z,97825.00
2022-09-02T01:53:29.224Z,97821.00
2022-09-02T01:53:39.345Z,97827.00
2022-09-02T01:53:49.465Z,97825.00
2022-09-02T01:53:59.586Z,97825.00
2022-09-02T01:54:09.582Z,97829.00
2022-09-02T01:54:19.833Z,97825.00
2022-09-02T01:54:29.832Z,97821.00
2022-09-02T01:54:39.952Z,97821.00
2022-09-02T01:54:50.197Z,97821.00
2022-09-02T01:55:00.315Z,97821.00
2022-09-02T01:55:10.316Z,97821.00
2022-09-02T01:55:20.563Z,97821.00
2022-09-02T01:55:30.677Z,97821.00
2022-09-02T01:55:40.796Z,97821.00
2022-09-02T01:55:50.922Z,97823.00
2022-09-02T01:56:01.039Z,97821.00
2022-09-02T01:56:11.040Z,97821.00
2022-09-02T01:56:21.312Z,97821.00
2022-09-02T01:56:31.317Z,97821.00
2022-09-02T01:56:41.365Z,97821.00
2022-09-02T01:56:51.366Z,97821.00
2022-09-02T01:57:01.359Z,97823.00
2022-09-02T01:57:11.355Z,97821.00
2022-09-02T01:57:21.472Z,97821.00
2022-09-02T01:57:31.592Z,97821.00
2022-09-02T01:57:41.711Z,97821.00
2022-09-02T01:57:51.836Z,97823.00
2022-09-02T01:58:01.837Z,97823.00
2022-09-02T01:58:11.954Z,97823.00
2022-09-02T01:58:22.071Z,97823.00
2022-09-02T01:58:32.200Z,97821.00
2022-09-02T01:58:42.316Z,97829.00